sensor_id;sensor_type;location;lat;lon;timestamp;temperature;humidity
15819;DHT22;8010;53.986;12.106;2024-02-26T00:00:26;2.00;99.90
15819;DHT22;8010;53.986;12.106;2024-02-26T00:02:52;2.00;99.90
15819;DHT22;8010;53.986;12.106;2024-02-26T00:05:17;1.90;99.90
15819;DHT22;8010;53.986;12.106;2024-02-26T00:07:43;1.90;99.90
15819;DHT22;8010;53.986;12.106;2024-02-26T00:10:09;1.80;99.90
15819;DHT22;8010;53.986;12.106;2024-02-26T00:12:35;1.90;99.90
15819;DHT22;8010;53.986;12.106;2024-02-26T00:15:00;1.90;99.90
15819;DHT22;8010;53.986;12.106;2024-02-26T00:17:26;2.00;99.90
15819;DHT22;8010;53.986;12.106;2024-02-26T00:19:51;2.10;99.90
15819;DHT22;8010;53.986;12.106;2024-02-26T00:22:17;2.10;99.90
15819;DHT22;8010;53.986;12.106;2024-02-26T00:24:42;2.10;99.90
15819;DHT22;8010;53.986;12.106;2024-02-26T00:27:08;2.10;99.90
15819;DHT22;8010;53.986;12.106;2024-02-26T00:29:33;2.10;99.90
15819;DHT22;8010;53.986;12.106;2024-02-26T00:31:59;2.10;99.90
15819;DHT22;8010;53.986;12.106;2024-02-26T00:34:24;2.10;99.90
15819;DHT22;8010;53.986;12.106;2024-02-26T00:36:50;2.00;99.90
15819;DHT22;8010;53.986;12.106;2024-02-26T00:39:15;2.00;99.90
15819;DHT22;8010;53.986;12.106;2024-02-26T00:41:41;2.00;99.90
15819;DHT22;8010;53.986;12.106;2024-02-26T00:44:07;2.00;99.90
15819;DHT22;8010;53.986;12.106;2024-02-26T00:46:32;2.00;99.90
15819;DHT22;8010;53.986;12.106;2024-02-26T00:48:58;2.00;99.90
15819;DHT22;8010;53.986;12.106;2024-02-26T00:51:23;1.90;99.90
15819;DHT22;8010;53.986;12.106;2024-02-26T00:53:49;1.90;99.90
15819;DHT22;8010;53.986;12.106;2024-02-26T00:56:14;1.80;99.90
15819;DHT22;8010;53.986;12.106;2024-02-26T00:58:40;1.70;99.90
15819;DHT22;8010;53.986;12.106;2024-02-26T01:01:05;1.70;99.90
15819;DHT22;8010;53.986;12.106;2024-02-26T01:03:31;1.60;99.90
15819;DHT22;8010;53.986;12.106;2024-02-26T01:05:56;1.60;99.90
15819;DHT22;8010;53.986;12.106;2024-02-26T01:08:22;1.50;99.90
15819;DHT22;8010;53.986;12.106;2024-02-26T01:10:47;1.40;99.90
15819;DHT22;8010;53.986;12.106;2024-02-26T01:13:13;1.40;99.90
15819;DHT22;8010;53.986;12.106;2024-02-26T01:15:39;1.40;99.90
15819;DHT22;8010;53.986;12.106;2024-02-26T01:18:05;1.30;99.90
15819;DHT22;8010;53.986;12.106;2024-02-26T01:20:30;1.30;99.90
15819;DHT22;8010;53.986;12.106;2024-02-26T01:22:56;1.30;99.90
15819;DHT22;8010;53.986;12.106;2024-02-26T01:25:21;1.30;99.90
15819;DHT22;8010;53.986;12.106;2024-02-26T01:27:47;1.20;99.90
15819;DHT22;8010;53.986;12.106;2024-02-26T01:30:12;1.30;99.90
15819;DHT22;8010;53.986;12.106;2024-02-26T01:32:41;1.30;99.90
15819;DHT22;8010;53.986;12.106;2024-02-26T01:35:06;1.20;99.90
15819;DHT22;8010;53.986;12.106;2024-02-26T01:37:37;1.20;99.90
15819;DHT22;8010;53.986;12.106;2024-02-26T01:40:03;1.20;99.90
15819;DHT22;8010;53.986;12.106;2024-02-26T01:42:30;1.20;99.90
15819;DHT22;8010;53.986;12.106;2024-02-26T01:44:56;1.20;99.90
15819;DHT22;8010;53.986;12.106;2024-02-26T01:47:22;1.20;99.90
15819;DHT22;8010;53.986;12.106;2024-02-26T01:49:48;1.20;99.90
15819;DHT22;8010;53.986;12.106;2024-02-26T01:52:14;1.20;99.90
15819;DHT22;8010;53.986;12.106;2024-02-26T01:54:41;1.20;99.90
15819;DHT22;8010;53.986;12.106;2024-02-26T01:57:08;1.20;99.90
15819;DHT22;8010;53.986;12.106;2024-02-26T01:59:34;1.10;99.90
15819;DHT22;8010;53.986;12.106;2024-02-26T02:02:01;1.10;99.90
15819;DHT22;8010;53.986;12.106;2024-02-26T02:04:27;1.10;99.90
15819;DHT22;8010;53.986;12.106;2024-02-26T02:06:53;1.10;99.90
15819;DHT22;8010;53.986;12.106;2024-02-26T02:09:19;1.10;99.90
15819;DHT22;8010;53.986;12.106;2024-02-26T02:11:46;1.00;99.90
15819;DHT22;8010;53.986;12.106;2024-02-26T02:14:13;1.00;99.90
15819;DHT22;8010;53.986;12.106;2024-02-26T02:16:39;1.00;99.90
15819;DHT22;8010;53.986;12.106;2024-02-26T02:19:04;1.10;99.90
15819;DHT22;8010;53.986;12.106;2024-02-26T02:21:30;1.00;99.90
15819;DHT22;8010;53.986;12.106;2024-02-26T02:23:55;1.00;99.90
15819;DHT22;8010;53.986;12.106;2024-02-26T02:26:21;1.10;99.90
15819;DHT22;8010;53.986;12.106;2024-02-26T02:28:47;1.10;99.90
15819;DHT22;8010;53.986;12.106;2024-02-26T02:31:14;1.00;99.90
15819;DHT22;8010;53.986;12.106;2024-02-26T02:33:40;1.00;99.90
15819;DHT22;8010;53.986;12.106;2024-02-26T02:36:06;1.00;99.90
15819;DHT22;8010;53.986;12.106;2024-02-26T02:38:38;1.00;99.90
15819;DHT22;8010;53.986;12.106;2024-02-26T02:41:04;1.00;99.90
15819;DHT22;8010;53.986;12.106;2024-02-26T02:43:30;1.00;99.90
15819;DHT22;8010;53.986;12.106;2024-02-26T02:45:55;1.00;99.90
15819;DHT22;8010;53.986;12.106;2024-02-26T02:48:21;1.00;99.90
15819;DHT22;8010;53.986;12.106;2024-02-26T02:50:46;1.00;99.90
15819;DHT22;8010;53.986;12.106;2024-02-26T02:53:12;1.00;99.90
15819;DHT22;8010;53.986;12.106;2024-02-26T02:55:37;1.00;99.90
15819;DHT22;8010;53.986;12.106;2024-02-26T02:58:03;1.00;99.90
15819;DHT22;8010;53.986;12.106;2024-02-26T03:00:29;0.90;99.90
15819;DHT22;8010;53.986;12.106;2024-02-26T03:02:54;0.90;99.90
15819;DHT22;8010;53.986;12.106;2024-02-26T03:05:20;0.90;99.90
15819;DHT22;8010;53.986;12.106;2024-02-26T03:07:45;0.80;99.90
15819;DHT22;8010;53.986;12.106;2024-02-26T03:10:11;0.80;99.90
15819;DHT22;8010;53.986;12.106;2024-02-26T03:12:36;0.80;99.90
15819;DHT22;8010;53.986;12.106;2024-02-26T03:15:02;0.80;99.90
15819;DHT22;8010;53.986;12.106;2024-02-26T03:17:31;0.80;99.90
15819;DHT22;8010;53.986;12.106;2024-02-26T03:19:56;0.80;99.90
15819;DHT22;8010;53.986;12.106;2024-02-26T03:22:22;0.80;99.90
15819;DHT22;8010;53.986;12.106;2024-02-26T03:24:48;0.80;99.90
15819;DHT22;8010;53.986;12.106;2024-02-26T03:27:13;0.70;99.90
15819;DHT22;8010;53.986;12.106;2024-02-26T03:29:40;0.70;99.90
15819;DHT22;8010;53.986;12.106;2024-02-26T03:32:05;0.70;99.90
15819;DHT22;8010;53.986;12.106;2024-02-26T03:34:32;0.70;99.90
15819;DHT22;8010;53.986;12.106;2024-02-26T03:37:00;0.60;99.90
15819;DHT22;8010;53.986;12.106;2024-02-26T03:39:25;0.60;99.90
15819;DHT22;8010;53.986;12.106;2024-02-26T03:41:51;0.60;99.90
15819;DHT22;8010;53.986;12.106;2024-02-26T03:44:16;0.60;99.90
15819;DHT22;8010;53.986;12.106;2024-02-26T03:46:42;0.60;99.90
15819;DHT22;8010;53.986;12.106;2024-02-26T03:49:10;0.60;99.90
15819;DHT22;8010;53.986;12.106;2024-02-26T03:51:37;0.60;99.90
15819;DHT22;8010;53.986;12.106;2024-02-26T03:54:03;0.60;99.90
15819;DHT22;8010;53.986;12.106;2024-02-26T03:56:28;0.60;99.90
15819;DHT22;8010;53.986;12.106;2024-02-26T03:58:54;0.60;99.90
15819;DHT22;8010;53.986;12.106;2024-02-26T04:01:19;0.50;99.90
15819;DHT22;8010;53.986;12.106;2024-02-26T04:03:45;0.50;99.90
15819;DHT22;8010;53.986;12.106;2024-02-26T04:06:11;0.50;99.90
15819;DHT22;8010;53.986;12.106;2024-02-26T04:08:39;0.50;99.90
15819;DHT22;8010;53.986;12.106;2024-02-26T04:11:05;0.50;99.90
15819;DHT22;8010;53.986;12.106;2024-02-26T04:13:33;0.50;99.90
15819;DHT22;8010;53.986;12.106;2024-02-26T04:15:59;0.60;99.90
15819;DHT22;8010;53.986;12.106;2024-02-26T04:18:26;0.60;99.90
15819;DHT22;8010;53.986;12.106;2024-02-26T04:20:52;0.60;99.90
15819;DHT22;8010;53.986;12.106;2024-02-26T04:23:18;0.60;99.90
15819;DHT22;8010;53.986;12.106;2024-02-26T04:25:43;0.60;99.90
15819;DHT22;8010;53.986;12.106;2024-02-26T04:28:09;0.60;99.90
15819;DHT22;8010;53.986;12.106;2024-02-26T04:30:34;0.60;99.90
15819;DHT22;8010;53.986;12.106;2024-02-26T04:33:00;0.60;99.90
15819;DHT22;8010;53.986;12.106;2024-02-26T04:35:25;0.50;99.90
15819;DHT22;8010;53.986;12.106;2024-02-26T04:37:51;0.50;99.90
15819;DHT22;8010;53.986;12.106;2024-02-26T04:40:16;0.40;99.90
15819;DHT22;8010;53.986;12.106;2024-02-26T04:42:42;0.40;99.90
15819;DHT22;8010;53.986;12.106;2024-02-26T04:45:08;0.40;99.90
15819;DHT22;8010;53.986;12.106;2024-02-26T04:47:34;0.40;99.90
15819;DHT22;8010;53.986;12.106;2024-02-26T04:49:59;0.40;99.90
15819;DHT22;8010;53.986;12.106;2024-02-26T04:52:25;0.40;99.90
15819;DHT22;8010;53.986;12.106;2024-02-26T04:54:51;0.40;99.90
15819;DHT22;8010;53.986;12.106;2024-02-26T04:57:16;0.40;99.90
15819;DHT22;8010;53.986;12.106;2024-02-26T04:59:44;0.40;99.90
15819;DHT22;8010;53.986;12.106;2024-02-26T05:02:11;0.40;99.90
15819;DHT22;8010;53.986;12.106;2024-02-26T05:04:37;0.40;99.90
15819;DHT22;8010;53.986;12.106;2024-02-26T05:07:02;0.40;99.90
15819;DHT22;8010;53.986;12.106;2024-02-26T05:09:28;0.30;99.90
15819;DHT22;8010;53.986;12.106;2024-02-26T05:11:54;0.20;99.90
15819;DHT22;8010;53.986;12.106;2024-02-26T05:14:20;0.10;99.90
15819;DHT22;8010;53.986;12.106;2024-02-26T05:16:45;0.10;99.90
15819;DHT22;8010;53.986;12.106;2024-02-26T05:19:11;0.00;99.90
15819;DHT22;8010;53.986;12.106;2024-02-26T05:21:37;-0.10;99.90
15819;DHT22;8010;53.986;12.106;2024-02-26T05:24:02;0.00;99.90
15819;DHT22;8010;53.986;12.106;2024-02-26T05:26:28;0.00;99.90
15819;DHT22;8010;53.986;12.106;2024-02-26T05:28:53;0.10;99.90
15819;DHT22;8010;53.986;12.106;2024-02-26T05:31:25;0.20;99.90
15819;DHT22;8010;53.986;12.106;2024-02-26T05:33:50;0.20;99.90
15819;DHT22;8010;53.986;12.106;2024-02-26T05:36:22;0.20;99.90
15819;DHT22;8010;53.986;12.106;2024-02-26T05:38:48;0.30;99.90
15819;DHT22;8010;53.986;12.106;2024-02-26T05:41:17;0.30;99.90
15819;DHT22;8010;53.986;12.106;2024-02-26T05:43:48;0.30;99.90
15819;DHT22;8010;53.986;12.106;2024-02-26T05:46:16;0.30;99.90
15819;DHT22;8010;53.986;12.106;2024-02-26T05:48:42;0.30;99.90
15819;DHT22;8010;53.986;12.106;2024-02-26T05:51:07;0.40;99.90
15819;DHT22;8010;53.986;12.106;2024-02-26T05:53:34;0.40;99.90
15819;DHT22;8010;53.986;12.106;2024-02-26T05:55:59;0.40;99.90
15819;DHT22;8010;53.986;12.106;2024-02-26T05:58:25;0.40;99.90
15819;DHT22;8010;53.986;12.106;2024-02-26T06:00:51;0.40;99.90
15819;DHT22;8010;53.986;12.106;2024-02-26T06:03:16;0.40;99.90
15819;DHT22;8010;53.986;12.106;2024-02-26T06:05:42;0.40;99.90
15819;DHT22;8010;53.986;12.106;2024-02-26T06:08:08;0.40;99.90
15819;DHT22;8010;53.986;12.106;2024-02-26T06:10:34;0.40;99.90
15819;DHT22;8010;53.986;12.106;2024-02-26T06:12:59;0.40;99.90
15819;DHT22;8010;53.986;12.106;2024-02-26T06:15:25;0.50;99.90
15819;DHT22;8010;53.986;12.106;2024-02-26T06:17:50;0.50;99.90
15819;DHT22;8010;53.986;12.106;2024-02-26T06:20:16;0.50;99.90
15819;DHT22;8010;53.986;12.106;2024-02-26T06:22:41;0.40;99.90
15819;DHT22;8010;53.986;12.106;2024-02-26T06:25:07;0.40;99.90
15819;DHT22;8010;53.986;12.106;2024-02-26T06:27:33;0.40;99.90
15819;DHT22;8010;53.986;12.106;2024-02-26T06:29:58;0.40;99.90
15819;DHT22;8010;53.986;12.106;2024-02-26T06:32:24;0.40;99.90
15819;DHT22;8010;53.986;12.106;2024-02-26T06:34:49;0.40;99.90
15819;DHT22;8010;53.986;12.106;2024-02-26T06:37:15;0.50;99.90
15819;DHT22;8010;53.986;12.106;2024-02-26T06:39:41;0.50;99.90
15819;DHT22;8010;53.986;12.106;2024-02-26T06:42:07;0.40;99.90
15819;DHT22;8010;53.986;12.106;2024-02-26T06:44:33;0.40;99.90
15819;DHT22;8010;53.986;12.106;2024-02-26T06:46:59;0.40;99.90
15819;DHT22;8010;53.986;12.106;2024-02-26T06:49:25;0.40;99.90
15819;DHT22;8010;53.986;12.106;2024-02-26T06:51:50;0.40;99.90
15819;DHT22;8010;53.986;12.106;2024-02-26T06:54:16;0.40;99.90
15819;DHT22;8010;53.986;12.106;2024-02-26T06:56:41;0.40;99.90
15819;DHT22;8010;53.986;12.106;2024-02-26T06:59:07;0.40;99.90
15819;DHT22;8010;53.986;12.106;2024-02-26T07:01:32;0.40;99.90
15819;DHT22;8010;53.986;12.106;2024-02-26T07:03:58;0.50;99.90
15819;DHT22;8010;53.986;12.106;2024-02-26T07:06:23;0.60;99.90
15819;DHT22;8010;53.986;12.106;2024-02-26T07:08:49;0.60;99.90
15819;DHT22;8010;53.986;12.106;2024-02-26T07:11:14;0.70;99.90
15819;DHT22;8010;53.986;12.106;2024-02-26T07:13:40;0.70;99.90
15819;DHT22;8010;53.986;12.106;2024-02-26T07:16:06;0.80;99.90
15819;DHT22;8010;53.986;12.106;2024-02-26T07:18:31;0.90;99.90
15819;DHT22;8010;53.986;12.106;2024-02-26T07:20:57;0.90;99.90
15819;DHT22;8010;53.986;12.106;2024-02-26T07:23:22;0.90;99.90
15819;DHT22;8010;53.986;12.106;2024-02-26T07:25:48;0.90;99.90
15819;DHT22;8010;53.986;12.106;2024-02-26T07:28:15;1.00;99.90
15819;DHT22;8010;53.986;12.106;2024-02-26T07:30:40;1.10;99.90
15819;DHT22;8010;53.986;12.106;2024-02-26T07:33:06;1.10;99.90
15819;DHT22;8010;53.986;12.106;2024-02-26T07:35:32;1.10;99.90
15819;DHT22;8010;53.986;12.106;2024-02-26T07:37:58;1.20;99.90
15819;DHT22;8010;53.986;12.106;2024-02-26T07:40:24;1.20;99.90
15819;DHT22;8010;53.986;12.106;2024-02-26T07:42:49;1.30;99.90
15819;DHT22;8010;53.986;12.106;2024-02-26T07:45:15;1.30;99.90
15819;DHT22;8010;53.986;12.106;2024-02-26T07:47:41;1.40;99.90
15819;DHT22;8010;53.986;12.106;2024-02-26T07:50:08;1.50;99.90
15819;DHT22;8010;53.986;12.106;2024-02-26T07:52:34;1.50;99.90
15819;DHT22;8010;53.986;12.106;2024-02-26T07:54:59;1.70;99.90
15819;DHT22;8010;53.986;12.106;2024-02-26T07:57:25;1.70;99.90
15819;DHT22;8010;53.986;12.106;2024-02-26T07:59:50;1.80;99.90
15819;DHT22;8010;53.986;12.106;2024-02-26T08:02:17;1.90;99.90
15819;DHT22;8010;53.986;12.106;2024-02-26T08:04:43;2.00;99.90
15819;DHT22;8010;53.986;12.106;2024-02-26T08:07:08;2.10;99.90
15819;DHT22;8010;53.986;12.106;2024-02-26T08:09:34;2.20;99.90
15819;DHT22;8010;53.986;12.106;2024-02-26T08:11:59;2.20;99.90
15819;DHT22;8010;53.986;12.106;2024-02-26T08:14:25;2.30;99.90
15819;DHT22;8010;53.986;12.106;2024-02-26T08:16:50;2.30;99.90
15819;DHT22;8010;53.986;12.106;2024-02-26T08:19:16;2.40;99.90
15819;DHT22;8010;53.986;12.106;2024-02-26T08:21:43;2.40;99.90
15819;DHT22;8010;53.986;12.106;2024-02-26T08:24:08;2.50;99.90
15819;DHT22;8010;53.986;12.106;2024-02-26T08:26:34;2.50;99.90
15819;DHT22;8010;53.986;12.106;2024-02-26T08:28:59;2.60;99.90
15819;DHT22;8010;53.986;12.106;2024-02-26T08:31:25;2.60;99.90
15819;DHT22;8010;53.986;12.106;2024-02-26T08:33:50;2.70;99.90
15819;DHT22;8010;53.986;12.106;2024-02-26T08:36:16;2.70;99.90
15819;DHT22;8010;53.986;12.106;2024-02-26T08:38:41;2.70;99.90
15819;DHT22;8010;53.986;12.106;2024-02-26T08:41:07;2.80;99.90
15819;DHT22;8010;53.986;12.106;2024-02-26T08:43:32;2.90;99.90
15819;DHT22;8010;53.986;12.106;2024-02-26T08:45:58;3.00;99.90
15819;DHT22;8010;53.986;12.106;2024-02-26T08:48:24;3.10;99.90
15819;DHT22;8010;53.986;12.106;2024-02-26T08:50:50;3.20;99.90
15819;DHT22;8010;53.986;12.106;2024-02-26T08:53:15;3.30;99.90
15819;DHT22;8010;53.986;12.106;2024-02-26T08:55:41;3.40;99.90
15819;DHT22;8010;53.986;12.106;2024-02-26T08:58:06;3.50;99.90
15819;DHT22;8010;53.986;12.106;2024-02-26T09:00:32;3.60;99.90
15819;DHT22;8010;53.986;12.106;2024-02-26T09:02:57;3.80;99.90
15819;DHT22;8010;53.986;12.106;2024-02-26T09:05:23;4.10;99.90
15819;DHT22;8010;53.986;12.106;2024-02-26T09:07:48;4.30;99.90
15819;DHT22;8010;53.986;12.106;2024-02-26T09:10:14;4.50;99.90
15819;DHT22;8010;53.986;12.106;2024-02-26T09:12:39;4.80;99.90
15819;DHT22;8010;53.986;12.106;2024-02-26T09:15:06;5.00;99.90
15819;DHT22;8010;53.986;12.106;2024-02-26T09:17:32;5.30;99.90
15819;DHT22;8010;53.986;12.106;2024-02-26T09:19:58;5.50;99.90
15819;DHT22;8010;53.986;12.106;2024-02-26T09:22:23;5.80;99.90
15819;DHT22;8010;53.986;12.106;2024-02-26T09:24:49;6.00;99.90
15819;DHT22;8010;53.986;12.106;2024-02-26T09:27:16;6.20;99.90
15819;DHT22;8010;53.986;12.106;2024-02-26T09:29:42;6.30;99.90
15819;DHT22;8010;53.986;12.106;2024-02-26T09:32:08;6.60;99.90
15819;DHT22;8010;53.986;12.106;2024-02-26T09:34:33;6.80;99.90
15819;DHT22;8010;53.986;12.106;2024-02-26T09:36:59;7.20;99.90
15819;DHT22;8010;53.986;12.106;2024-02-26T09:39:25;7.40;99.90
15819;DHT22;8010;53.986;12.106;2024-02-26T09:41:51;7.70;99.90
15819;DHT22;8010;53.986;12.106;2024-02-26T09:44:20;7.90;99.90
15819;DHT22;8010;53.986;12.106;2024-02-26T09:46:48;8.10;99.90
15819;DHT22;8010;53.986;12.106;2024-02-26T09:49:18;8.30;99.90
15819;DHT22;8010;53.986;12.106;2024-02-26T09:51:45;8.30;99.90
15819;DHT22;8010;53.986;12.106;2024-02-26T09:54:12;8.40;99.90
15819;DHT22;8010;53.986;12.106;2024-02-26T09:56:39;8.40;99.90
15819;DHT22;8010;53.986;12.106;2024-02-26T09:59:10;8.50;99.90
15819;DHT22;8010;53.986;12.106;2024-02-26T10:01:39;8.60;99.90
15819;DHT22;8010;53.986;12.106;2024-02-26T10:04:08;8.60;99.90
15819;DHT22;8010;53.986;12.106;2024-02-26T10:06:36;8.70;99.90
15819;DHT22;8010;53.986;12.106;2024-02-26T10:09:02;8.70;99.90
15819;DHT22;8010;53.986;12.106;2024-02-26T10:11:32;8.80;99.90
15819;DHT22;8010;53.986;12.106;2024-02-26T10:13:57;8.90;99.90
15819;DHT22;8010;53.986;12.106;2024-02-26T10:16:23;8.90;99.90
15819;DHT22;8010;53.986;12.106;2024-02-26T10:18:50;8.90;99.90
15819;DHT22;8010;53.986;12.106;2024-02-26T10:21:16;8.90;99.90
15819;DHT22;8010;53.986;12.106;2024-02-26T10:23:43;8.90;99.90
15819;DHT22;8010;53.986;12.106;2024-02-26T10:26:10;9.00;99.90
15819;DHT22;8010;53.986;12.106;2024-02-26T10:28:37;9.20;99.90
15819;DHT22;8010;53.986;12.106;2024-02-26T10:31:04;9.30;99.90
15819;DHT22;8010;53.986;12.106;2024-02-26T10:33:29;9.50;99.90
15819;DHT22;8010;53.986;12.106;2024-02-26T10:35:55;9.60;99.90
15819;DHT22;8010;53.986;12.106;2024-02-26T10:38:20;9.70;99.90
15819;DHT22;8010;53.986;12.106;2024-02-26T10:40:48;9.80;99.90
15819;DHT22;8010;53.986;12.106;2024-02-26T10:43:14;9.90;99.90
15819;DHT22;8010;53.986;12.106;2024-02-26T10:45:42;9.90;99.90
15819;DHT22;8010;53.986;12.106;2024-02-26T10:48:13;9.90;99.90
15819;DHT22;8010;53.986;12.106;2024-02-26T10:50:39;9.90;99.90
15819;DHT22;8010;53.986;12.106;2024-02-26T10:53:15;9.80;99.90
15819;DHT22;8010;53.986;12.106;2024-02-26T10:55:43;9.90;99.90
15819;DHT22;8010;53.986;12.106;2024-02-26T10:58:12;9.80;99.90
15819;DHT22;8010;53.986;12.106;2024-02-26T11:00:39;9.80;99.90
15819;DHT22;8010;53.986;12.106;2024-02-26T11:03:06;9.70;99.90
15819;DHT22;8010;53.986;12.106;2024-02-26T11:05:33;9.70;99.90
15819;DHT22;8010;53.986;12.106;2024-02-26T11:08:00;9.60;99.90
15819;DHT22;8010;53.986;12.106;2024-02-26T11:10:27;9.60;99.90
15819;DHT22;8010;53.986;12.106;2024-02-26T11:12:56;9.60;99.90
15819;DHT22;8010;53.986;12.106;2024-02-26T11:15:25;9.60;99.90
15819;DHT22;8010;53.986;12.106;2024-02-26T11:17:52;9.60;99.90
15819;DHT22;8010;53.986;12.106;2024-02-26T11:20:18;9.70;99.90
15819;DHT22;8010;53.986;12.106;2024-02-26T11:22:44;9.70;99.90
15819;DHT22;8010;53.986;12.106;2024-02-26T11:25:10;9.80;99.90
15819;DHT22;8010;53.986;12.106;2024-02-26T11:27:43;9.90;99.90
15819;DHT22;8010;53.986;12.106;2024-02-26T11:30:11;9.90;99.90
15819;DHT22;8010;53.986;12.106;2024-02-26T11:32:37;10.00;99.90
15819;DHT22;8010;53.986;12.106;2024-02-26T11:35:05;10.00;99.90
15819;DHT22;8010;53.986;12.106;2024-02-26T11:37:31;10.00;99.90
15819;DHT22;8010;53.986;12.106;2024-02-26T11:39:59;10.10;99.90
15819;DHT22;8010;53.986;12.106;2024-02-26T11:42:26;10.20;99.90
15819;DHT22;8010;53.986;12.106;2024-02-26T11:44:52;10.20;99.90
15819;DHT22;8010;53.986;12.106;2024-02-26T11:47:22;10.20;99.90
15819;DHT22;8010;53.986;12.106;2024-02-26T11:49:48;10.30;99.90
15819;DHT22;8010;53.986;12.106;2024-02-26T11:52:15;10.40;99.90
15819;DHT22;8010;53.986;12.106;2024-02-26T11:54:56;10.50;99.90
15819;DHT22;8010;53.986;12.106;2024-02-26T11:57:28;10.60;99.90
15819;DHT22;8010;53.986;12.106;2024-02-26T11:59:55;10.80;99.90
